sensor_id;sensor_type;location;lat;lon;timestamp;P1;durP1;ratioP1;P2;durP2;ratioP2
6947;SDS011;3513;47.664;9.162;2023-07-30T00:01:27;5.57;;;3.47;;
6947;SDS011;3513;47.664;9.162;2023-07-30T00:03:53;4.03;;;3.10;;
6947;SDS011;3513;47.664;9.162;2023-07-30T00:06:19;5.00;;;3.80;;
6947;SDS011;3513;47.664;9.162;2023-07-30T00:08:44;3.30;;;3.00;;
6947;SDS011;3513;47.664;9.162;2023-07-30T00:11:10;5.40;;;4.07;;
6947;SDS011;3513;47.664;9.162;2023-07-30T00:13:35;8.30;;;4.30;;
6947;SDS011;3513;47.664;9.162;2023-07-30T00:16:01;17.03;;;3.90;;
6947;SDS011;3513;47.664;9.162;2023-07-30T00:18:26;5.37;;;4.67;;
6947;SDS011;3513;47.664;9.162;2023-07-30T00:20:52;3.23;;;2.93;;
6947;SDS011;3513;47.664;9.162;2023-07-30T00:23:17;5.00;;;3.10;;
6947;SDS011;3513;47.664;9.162;2023-07-30T00:25:43;6.57;;;3.43;;
6947;SDS011;3513;47.664;9.162;2023-07-30T00:28:09;6.33;;;3.47;;
6947;SDS011;3513;47.664;9.162;2023-07-30T00:30:34;4.80;;;3.33;;
6947;SDS011;3513;47.664;9.162;2023-07-30T00:33:00;3.93;;;3.47;;
6947;SDS011;3513;47.664;9.162;2023-07-30T00:35:25;7.30;;;3.50;;
6947;SDS011;3513;47.664;9.162;2023-07-30T00:37:51;5.07;;;3.33;;
6947;SDS011;3513;47.664;9.162;2023-07-30T00:40:17;3.33;;;3.03;;
6947;SDS011;3513;47.664;9.162;2023-07-30T00:42:43;7.30;;;3.23;;
6947;SDS011;3513;47.664;9.162;2023-07-30T00:45:08;7.10;;;4.03;;
6947;SDS011;3513;47.664;9.162;2023-07-30T00:47:35;3.67;;;3.30;;
6947;SDS011;3513;47.664;9.162;2023-07-30T00:50:03;3.73;;;3.20;;
6947;SDS011;3513;47.664;9.162;2023-07-30T00:52:29;8.07;;;3.40;;
6947;SDS011;3513;47.664;9.162;2023-07-30T00:54:56;4.40;;;3.20;;
6947;SDS011;3513;47.664;9.162;2023-07-30T00:57:23;8.83;;;4.17;;
6947;SDS011;3513;47.664;9.162;2023-07-30T00:59:50;3.80;;;3.50;;
6947;SDS011;3513;47.664;9.162;2023-07-30T01:02:16;9.50;;;3.90;;
6947;SDS011;3513;47.664;9.162;2023-07-30T01:04:42;7.13;;;4.13;;
6947;SDS011;3513;47.664;9.162;2023-07-30T01:07:09;6.87;;;4.13;;
6947;SDS011;3513;47.664;9.162;2023-07-30T01:09:35;6.93;;;3.70;;
6947;SDS011;3513;47.664;9.162;2023-07-30T01:12:00;5.53;;;3.80;;
6947;SDS011;3513;47.664;9.162;2023-07-30T01:14:28;6.20;;;3.50;;
6947;SDS011;3513;47.664;9.162;2023-07-30T01:16:54;6.30;;;4.10;;
6947;SDS011;3513;47.664;9.162;2023-07-30T01:19:20;7.03;;;3.67;;
6947;SDS011;3513;47.664;9.162;2023-07-30T01:21:46;10.83;;;3.73;;
6947;SDS011;3513;47.664;9.162;2023-07-30T01:24:11;7.50;;;4.00;;
6947;SDS011;3513;47.664;9.162;2023-07-30T01:26:43;7.60;;;3.70;;
6947;SDS011;3513;47.664;9.162;2023-07-30T01:29:17;16.53;;;3.70;;
6947;SDS011;3513;47.664;9.162;2023-07-30T01:32:00;7.63;;;4.33;;
6947;SDS011;3513;47.664;9.162;2023-07-30T01:34:29;4.33;;;3.70;;
6947;SDS011;3513;47.664;9.162;2023-07-30T01:37:00;8.77;;;4.20;;
6947;SDS011;3513;47.664;9.162;2023-07-30T01:39:27;6.73;;;4.43;;
6947;SDS011;3513;47.664;9.162;2023-07-30T01:41:53;4.27;;;3.47;;
6947;SDS011;3513;47.664;9.162;2023-07-30T01:44:19;6.30;;;4.30;;
6947;SDS011;3513;47.664;9.162;2023-07-30T01:46:45;10.70;;;3.53;;
6947;SDS011;3513;47.664;9.162;2023-07-30T01:49:11;6.50;;;3.50;;
6947;SDS011;3513;47.664;9.162;2023-07-30T01:51:36;5.63;;;3.87;;
6947;SDS011;3513;47.664;9.162;2023-07-30T01:54:02;10.63;;;4.57;;
6947;SDS011;3513;47.664;9.162;2023-07-30T01:56:27;12.23;;;4.67;;
6947;SDS011;3513;47.664;9.162;2023-07-30T01:58:53;4.47;;;4.07;;
6947;SDS011;3513;47.664;9.162;2023-07-30T02:01:19;5.90;;;4.03;;
6947;SDS011;3513;47.664;9.162;2023-07-30T02:03:45;14.20;;;4.60;;
6947;SDS011;3513;47.664;9.162;2023-07-30T02:06:10;5.17;;;3.87;;
6947;SDS011;3513;47.664;9.162;2023-07-30T02:08:37;9.47;;;4.23;;
6947;SDS011;3513;47.664;9.162;2023-07-30T02:11:02;5.90;;;4.50;;
6947;SDS011;3513;47.664;9.162;2023-07-30T02:13:28;6.73;;;3.90;;
6947;SDS011;3513;47.664;9.162;2023-07-30T02:15:53;7.73;;;4.13;;
6947;SDS011;3513;47.664;9.162;2023-07-30T02:18:19;7.33;;;3.70;;
6947;SDS011;3513;47.664;9.162;2023-07-30T02:20:45;4.03;;;3.60;;
6947;SDS011;3513;47.664;9.162;2023-07-30T02:23:10;4.53;;;3.47;;
6947;SDS011;3513;47.664;9.162;2023-07-30T02:25:37;7.30;;;4.07;;
6947;SDS011;3513;47.664;9.162;2023-07-30T02:28:03;6.50;;;3.97;;
6947;SDS011;3513;47.664;9.162;2023-07-30T02:30:28;5.63;;;4.40;;
6947;SDS011;3513;47.664;9.162;2023-07-30T02:32:54;6.60;;;4.53;;
6947;SDS011;3513;47.664;9.162;2023-07-30T02:35:20;4.33;;;3.67;;
6947;SDS011;3513;47.664;9.162;2023-07-30T02:37:45;8.60;;;4.40;;
6947;SDS011;3513;47.664;9.162;2023-07-30T02:40:11;11.17;;;3.40;;
6947;SDS011;3513;47.664;9.162;2023-07-30T02:42:37;11.73;;;4.77;;
6947;SDS011;3513;47.664;9.162;2023-07-30T02:45:03;5.80;;;4.47;;
6947;SDS011;3513;47.664;9.162;2023-07-30T02:47:29;5.40;;;3.90;;
6947;SDS011;3513;47.664;9.162;2023-07-30T02:49:54;6.53;;;4.17;;
6947;SDS011;3513;47.664;9.162;2023-07-30T02:52:20;4.20;;;3.50;;
6947;SDS011;3513;47.664;9.162;2023-07-30T02:54:45;12.60;;;3.93;;
6947;SDS011;3513;47.664;9.162;2023-07-30T02:57:11;13.57;;;5.00;;
6947;SDS011;3513;47.664;9.162;2023-07-30T02:59:37;9.57;;;4.93;;
6947;SDS011;3513;47.664;9.162;2023-07-30T03:02:03;5.13;;;4.57;;
6947;SDS011;3513;47.664;9.162;2023-07-30T03:04:32;7.60;;;4.63;;
6947;SDS011;3513;47.664;9.162;2023-07-30T03:06:57;6.37;;;3.80;;
6947;SDS011;3513;47.664;9.162;2023-07-30T03:09:23;8.83;;;4.50;;
6947;SDS011;3513;47.664;9.162;2023-07-30T03:11:49;5.13;;;3.73;;
6947;SDS011;3513;47.664;9.162;2023-07-30T03:14:15;10.60;;;4.83;;
6947;SDS011;3513;47.664;9.162;2023-07-30T03:16:41;6.13;;;4.60;;
6947;SDS011;3513;47.664;9.162;2023-07-30T03:19:06;7.80;;;4.73;;
6947;SDS011;3513;47.664;9.162;2023-07-30T03:21:32;4.73;;;4.23;;
6947;SDS011;3513;47.664;9.162;2023-07-30T03:23:57;4.90;;;4.23;;
6947;SDS011;3513;47.664;9.162;2023-07-30T03:26:23;6.10;;;5.03;;
6947;SDS011;3513;47.664;9.162;2023-07-30T03:28:48;6.53;;;5.10;;
6947;SDS011;3513;47.664;9.162;2023-07-30T03:31:14;6.90;;;5.03;;
6947;SDS011;3513;47.664;9.162;2023-07-30T03:33:40;4.17;;;3.77;;
6947;SDS011;3513;47.664;9.162;2023-07-30T03:36:09;5.10;;;4.00;;
6947;SDS011;3513;47.664;9.162;2023-07-30T03:38:35;5.73;;;4.90;;
6947;SDS011;3513;47.664;9.162;2023-07-30T03:41:01;5.90;;;4.63;;
6947;SDS011;3513;47.664;9.162;2023-07-30T03:43:26;5.30;;;4.37;;
6947;SDS011;3513;47.664;9.162;2023-07-30T03:45:52;5.80;;;4.67;;
6947;SDS011;3513;47.664;9.162;2023-07-30T03:48:17;11.33;;;4.97;;
6947;SDS011;3513;47.664;9.162;2023-07-30T03:50:43;6.17;;;4.40;;
6947;SDS011;3513;47.664;9.162;2023-07-30T03:53:08;6.40;;;4.90;;
6947;SDS011;3513;47.664;9.162;2023-07-30T03:55:34;6.50;;;4.73;;
6947;SDS011;3513;47.664;9.162;2023-07-30T03:58:00;6.47;;;4.60;;
6947;SDS011;3513;47.664;9.162;2023-07-30T04:00:25;11.20;;;4.40;;
6947;SDS011;3513;47.664;9.162;2023-07-30T04:02:51;6.43;;;5.23;;
6947;SDS011;3513;47.664;9.162;2023-07-30T04:05:16;9.53;;;6.20;;
6947;SDS011;3513;47.664;9.162;2023-07-30T04:07:42;11.13;;;4.60;;
6947;SDS011;3513;47.664;9.162;2023-07-30T04:10:08;8.00;;;5.30;;
6947;SDS011;3513;47.664;9.162;2023-07-30T04:12:33;7.90;;;5.47;;
6947;SDS011;3513;47.664;9.162;2023-07-30T04:14:59;7.50;;;5.70;;
6947;SDS011;3513;47.664;9.162;2023-07-30T04:17:24;13.03;;;4.60;;
6947;SDS011;3513;47.664;9.162;2023-07-30T04:19:50;14.97;;;4.20;;
6947;SDS011;3513;47.664;9.162;2023-07-30T04:22:15;8.03;;;4.87;;
6947;SDS011;3513;47.664;9.162;2023-07-30T04:24:41;8.60;;;4.87;;
6947;SDS011;3513;47.664;9.162;2023-07-30T04:27:07;5.13;;;4.60;;
6947;SDS011;3513;47.664;9.162;2023-07-30T04:29:32;7.83;;;4.73;;
6947;SDS011;3513;47.664;9.162;2023-07-30T04:31:58;7.47;;;5.17;;
6947;SDS011;3513;47.664;9.162;2023-07-30T04:34:23;19.23;;;4.40;;
6947;SDS011;3513;47.664;9.162;2023-07-30T04:36:49;6.63;;;5.27;;
6947;SDS011;3513;47.664;9.162;2023-07-30T04:39:14;5.20;;;4.50;;
6947;SDS011;3513;47.664;9.162;2023-07-30T04:41:40;6.43;;;5.07;;
6947;SDS011;3513;47.664;9.162;2023-07-30T04:44:05;5.93;;;4.40;;
6947;SDS011;3513;47.664;9.162;2023-07-30T04:46:31;12.13;;;5.00;;
6947;SDS011;3513;47.664;9.162;2023-07-30T04:48:58;5.07;;;4.07;;
6947;SDS011;3513;47.664;9.162;2023-07-30T04:51:23;6.97;;;4.13;;
6947;SDS011;3513;47.664;9.162;2023-07-30T04:53:49;6.03;;;4.90;;
6947;SDS011;3513;47.664;9.162;2023-07-30T04:56:15;13.33;;;4.93;;
6947;SDS011;3513;47.664;9.162;2023-07-30T04:58:40;13.30;;;4.23;;
6947;SDS011;3513;47.664;9.162;2023-07-30T05:01:06;6.73;;;5.47;;
6947;SDS011;3513;47.664;9.162;2023-07-30T05:03:31;7.03;;;4.33;;
6947;SDS011;3513;47.664;9.162;2023-07-30T05:05:57;6.17;;;4.47;;
6947;SDS011;3513;47.664;9.162;2023-07-30T05:08:22;5.70;;;4.90;;
6947;SDS011;3513;47.664;9.162;2023-07-30T05:10:48;5.30;;;3.90;;
6947;SDS011;3513;47.664;9.162;2023-07-30T05:13:13;7.40;;;3.90;;
6947;SDS011;3513;47.664;9.162;2023-07-30T05:15:39;5.80;;;4.17;;
6947;SDS011;3513;47.664;9.162;2023-07-30T05:18:05;11.43;;;4.00;;
6947;SDS011;3513;47.664;9.162;2023-07-30T05:20:30;11.80;;;4.60;;
6947;SDS011;3513;47.664;9.162;2023-07-30T05:22:56;5.20;;;4.20;;
6947;SDS011;3513;47.664;9.162;2023-07-30T05:25:21;7.60;;;5.10;;
6947;SDS011;3513;47.664;9.162;2023-07-30T05:27:47;4.83;;;4.33;;
6947;SDS011;3513;47.664;9.162;2023-07-30T05:30:13;7.30;;;4.93;;
6947;SDS011;3513;47.664;9.162;2023-07-30T05:32:39;5.80;;;4.67;;
6947;SDS011;3513;47.664;9.162;2023-07-30T05:35:04;11.63;;;5.80;;
6947;SDS011;3513;47.664;9.162;2023-07-30T05:37:30;7.50;;;4.60;;
6947;SDS011;3513;47.664;9.162;2023-07-30T05:39:56;6.10;;;4.70;;
6947;SDS011;3513;47.664;9.162;2023-07-30T05:42:21;9.00;;;4.53;;
6947;SDS011;3513;47.664;9.162;2023-07-30T05:44:47;10.80;;;4.20;;
6947;SDS011;3513;47.664;9.162;2023-07-30T05:47:13;6.30;;;4.90;;
6947;SDS011;3513;47.664;9.162;2023-07-30T05:49:38;13.13;;;4.10;;
6947;SDS011;3513;47.664;9.162;2023-07-30T05:52:04;5.50;;;4.37;;
6947;SDS011;3513;47.664;9.162;2023-07-30T05:54:30;5.67;;;4.20;;
6947;SDS011;3513;47.664;9.162;2023-07-30T05:56:56;9.50;;;4.77;;
6947;SDS011;3513;47.664;9.162;2023-07-30T05:59:21;5.50;;;4.10;;
6947;SDS011;3513;47.664;9.162;2023-07-30T06:01:47;6.93;;;3.93;;
6947;SDS011;3513;47.664;9.162;2023-07-30T06:04:12;4.63;;;4.03;;
6947;SDS011;3513;47.664;9.162;2023-07-30T06:06:38;8.30;;;4.47;;
6947;SDS011;3513;47.664;9.162;2023-07-30T06:09:04;4.80;;;4.30;;
6947;SDS011;3513;47.664;9.162;2023-07-30T06:11:29;8.13;;;4.17;;
6947;SDS011;3513;47.664;9.162;2023-07-30T06:13:55;5.70;;;4.63;;
6947;SDS011;3513;47.664;9.162;2023-07-30T06:16:20;6.00;;;4.90;;
6947;SDS011;3513;47.664;9.162;2023-07-30T06:18:46;4.23;;;3.83;;
6947;SDS011;3513;47.664;9.162;2023-07-30T06:21:12;6.00;;;4.90;;
6947;SDS011;3513;47.664;9.162;2023-07-30T06:23:38;12.30;;;5.30;;
6947;SDS011;3513;47.664;9.162;2023-07-30T06:26:03;7.40;;;4.90;;
6947;SDS011;3513;47.664;9.162;2023-07-30T06:28:29;7.33;;;4.70;;
6947;SDS011;3513;47.664;9.162;2023-07-30T06:30:54;6.60;;;4.77;;
6947;SDS011;3513;47.664;9.162;2023-07-30T06:33:20;5.60;;;4.17;;
6947;SDS011;3513;47.664;9.162;2023-07-30T06:35:45;5.47;;;4.10;;
6947;SDS011;3513;47.664;9.162;2023-07-30T06:38:11;9.30;;;4.83;;
6947;SDS011;3513;47.664;9.162;2023-07-30T06:40:36;13.30;;;4.93;;
6947;SDS011;3513;47.664;9.162;2023-07-30T06:43:02;5.27;;;4.13;;
6947;SDS011;3513;47.664;9.162;2023-07-30T06:45:28;9.40;;;4.20;;
6947;SDS011;3513;47.664;9.162;2023-07-30T06:47:53;18.40;;;3.90;;
6947;SDS011;3513;47.664;9.162;2023-07-30T06:50:19;3.90;;;3.50;;
6947;SDS011;3513;47.664;9.162;2023-07-30T06:52:44;8.43;;;3.90;;
6947;SDS011;3513;47.664;9.162;2023-07-30T06:55:10;5.47;;;3.97;;
6947;SDS011;3513;47.664;9.162;2023-07-30T06:57:36;4.63;;;3.93;;
6947;SDS011;3513;47.664;9.162;2023-07-30T07:00:01;5.50;;;3.47;;
6947;SDS011;3513;47.664;9.162;2023-07-30T07:02:28;3.80;;;3.47;;
6947;SDS011;3513;47.664;9.162;2023-07-30T07:04:54;5.93;;;3.10;;
6947;SDS011;3513;47.664;9.162;2023-07-30T07:07:20;3.60;;;3.17;;
6947;SDS011;3513;47.664;9.162;2023-07-30T07:09:45;5.50;;;2.80;;
6947;SDS011;3513;47.664;9.162;2023-07-30T07:12:11;4.53;;;2.93;;
6947;SDS011;3513;47.664;9.162;2023-07-30T07:14:37;7.13;;;3.77;;
6947;SDS011;3513;47.664;9.162;2023-07-30T07:17:04;7.23;;;3.47;;
6947;SDS011;3513;47.664;9.162;2023-07-30T07:19:29;2.80;;;2.60;;
6947;SDS011;3513;47.664;9.162;2023-07-30T07:21:56;4.60;;;2.80;;
6947;SDS011;3513;47.664;9.162;2023-07-30T07:24:21;7.17;;;2.97;;
6947;SDS011;3513;47.664;9.162;2023-07-30T07:26:47;5.70;;;3.63;;
6947;SDS011;3513;47.664;9.162;2023-07-30T07:29:12;6.37;;;3.10;;
6947;SDS011;3513;47.664;9.162;2023-07-30T07:31:38;2.80;;;2.50;;
6947;SDS011;3513;47.664;9.162;2023-07-30T07:34:03;2.97;;;2.20;;
6947;SDS011;3513;47.664;9.162;2023-07-30T07:36:29;3.20;;;2.53;;
6947;SDS011;3513;47.664;9.162;2023-07-30T07:38:55;3.13;;;2.80;;
6947;SDS011;3513;47.664;9.162;2023-07-30T07:41:20;3.00;;;2.37;;
6947;SDS011;3513;47.664;9.162;2023-07-30T07:43:46;2.67;;;2.17;;
6947;SDS011;3513;47.664;9.162;2023-07-30T07:46:12;2.13;;;1.80;;
6947;SDS011;3513;47.664;9.162;2023-07-30T07:48:41;3.77;;;2.80;;
6947;SDS011;3513;47.664;9.162;2023-07-30T07:51:08;2.83;;;2.57;;
6947;SDS011;3513;47.664;9.162;2023-07-30T07:53:35;6.37;;;3.00;;
6947;SDS011;3513;47.664;9.162;2023-07-30T07:56:02;5.67;;;2.90;;
6947;SDS011;3513;47.664;9.162;2023-07-30T07:58:27;4.27;;;2.60;;
6947;SDS011;3513;47.664;9.162;2023-07-30T08:00:54;2.43;;;2.03;;
6947;SDS011;3513;47.664;9.162;2023-07-30T08:03:20;4.70;;;3.40;;
6947;SDS011;3513;47.664;9.162;2023-07-30T08:05:46;7.97;;;2.37;;
6947;SDS011;3513;47.664;9.162;2023-07-30T08:08:12;3.67;;;2.40;;
6947;SDS011;3513;47.664;9.162;2023-07-30T08:10:38;2.70;;;2.50;;
6947;SDS011;3513;47.664;9.162;2023-07-30T08:13:04;2.50;;;2.30;;
6947;SDS011;3513;47.664;9.162;2023-07-30T08:15:30;2.47;;;2.27;;
6947;SDS011;3513;47.664;9.162;2023-07-30T08:17:55;1.50;;;1.40;;
6947;SDS011;3513;47.664;9.162;2023-07-30T08:20:21;5.97;;;2.03;;
6947;SDS011;3513;47.664;9.162;2023-07-30T08:22:46;2.30;;;1.53;;
6947;SDS011;3513;47.664;9.162;2023-07-30T08:25:12;2.17;;;1.57;;
6947;SDS011;3513;47.664;9.162;2023-07-30T08:27:38;2.23;;;2.03;;
6947;SDS011;3513;47.664;9.162;2023-07-30T08:30:03;36.07;;;2.33;;
6947;SDS011;3513;47.664;9.162;2023-07-30T08:32:29;2.60;;;1.50;;
6947;SDS011;3513;47.664;9.162;2023-07-30T08:34:55;2.30;;;1.73;;
6947;SDS011;3513;47.664;9.162;2023-07-30T08:37:20;3.23;;;1.60;;
6947;SDS011;3513;47.664;9.162;2023-07-30T08:39:46;1.60;;;1.50;;
6947;SDS011;3513;47.664;9.162;2023-07-30T08:42:12;2.00;;;1.80;;
6947;SDS011;3513;47.664;9.162;2023-07-30T08:44:37;12.13;;;1.47;;
6947;SDS011;3513;47.664;9.162;2023-07-30T08:47:03;2.20;;;1.43;;
6947;SDS011;3513;47.664;9.162;2023-07-30T08:49:30;2.40;;;1.40;;
6947;SDS011;3513;47.664;9.162;2023-07-30T08:51:58;1.67;;;1.37;;
6947;SDS011;3513;47.664;9.162;2023-07-30T08:54:24;1.77;;;1.40;;
6947;SDS011;3513;47.664;9.162;2023-07-30T08:56:54;1.50;;;1.40;;
6947;SDS011;3513;47.664;9.162;2023-07-30T08:59:20;5.33;;;1.80;;
6947;SDS011;3513;47.664;9.162;2023-07-30T09:01:46;1.27;;;1.10;;
6947;SDS011;3513;47.664;9.162;2023-07-30T09:04:15;1.60;;;1.50;;
6947;SDS011;3513;47.664;9.162;2023-07-30T09:06:42;1.87;;;1.67;;
6947;SDS011;3513;47.664;9.162;2023-07-30T09:09:11;2.87;;;1.83;;
6947;SDS011;3513;47.664;9.162;2023-07-30T09:11:38;1.90;;;1.80;;
6947;SDS011;3513;47.664;9.162;2023-07-30T09:14:05;2.67;;;1.90;;
6947;SDS011;3513;47.664;9.162;2023-07-30T09:16:31;3.87;;;1.83;;
6947;SDS011;3513;47.664;9.162;2023-07-30T09:18:56;6.10;;;1.33;;
6947;SDS011;3513;47.664;9.162;2023-07-30T09:21:29;2.30;;;1.40;;
6947;SDS011;3513;47.664;9.162;2023-07-30T09:23:56;1.73;;;1.63;;
6947;SDS011;3513;47.664;9.162;2023-07-30T09:26:21;7.63;;;2.00;;
6947;SDS011;3513;47.664;9.162;2023-07-30T09:28:47;2.53;;;2.00;;
6947;SDS011;3513;47.664;9.162;2023-07-30T09:31:12;2.47;;;2.27;;
6947;SDS011;3513;47.664;9.162;2023-07-30T09:33:41;2.40;;;1.50;;
6947;SDS011;3513;47.664;9.162;2023-07-30T09:36:07;3.33;;;1.97;;
6947;SDS011;3513;47.664;9.162;2023-07-30T09:38:41;1.63;;;1.53;;
6947;SDS011;3513;47.664;9.162;2023-07-30T09:41:08;2.00;;;1.80;;
6947;SDS011;3513;47.664;9.162;2023-07-30T09:43:35;5.00;;;2.10;;
6947;SDS011;3513;47.664;9.162;2023-07-30T09:46:01;2.73;;;1.80;;
6947;SDS011;3513;47.664;9.162;2023-07-30T09:48:29;2.50;;;1.93;;
6947;SDS011;3513;47.664;9.162;2023-07-30T09:50:57;2.03;;;1.83;;
6947;SDS011;3513;47.664;9.162;2023-07-30T09:53:31;2.50;;;1.93;;
6947;SDS011;3513;47.664;9.162;2023-07-30T09:55:59;1.97;;;1.80;;
6947;SDS011;3513;47.664;9.162;2023-07-30T09:58:29;1.80;;;1.53;;
6947;SDS011;3513;47.664;9.162;2023-07-30T10:00:55;5.30;;;1.73;;
6947;SDS011;3513;47.664;9.162;2023-07-30T10:03:24;2.47;;;2.20;;
6947;SDS011;3513;47.664;9.162;2023-07-30T10:05:50;1.90;;;1.50;;
6947;SDS011;3513;47.664;9.162;2023-07-30T10:08:22;3.43;;;2.23;;
6947;SDS011;3513;47.664;9.162;2023-07-30T10:10:50;1.80;;;1.70;;
6947;SDS011;3513;47.664;9.162;2023-07-30T10:13:18;1.77;;;1.20;;
6947;SDS011;3513;47.664;9.162;2023-07-30T10:15:45;4.57;;;1.77;;
6947;SDS011;3513;47.664;9.162;2023-07-30T10:18:11;3.57;;;2.67;;
6947;SDS011;3513;47.664;9.162;2023-07-30T10:20:37;5.70;;;2.37;;
6947;SDS011;3513;47.664;9.162;2023-07-30T10:23:04;1.97;;;1.77;;
6947;SDS011;3513;47.664;9.162;2023-07-30T10:25:41;1.90;;;1.80;;
6947;SDS011;3513;47.664;9.162;2023-07-30T10:28:10;4.20;;;2.33;;
6947;SDS011;3513;47.664;9.162;2023-07-30T10:31:05;3.93;;;1.80;;
6947;SDS011;3513;47.664;9.162;2023-07-30T10:33:56;3.10;;;1.90;;
6947;SDS011;3513;47.664;9.162;2023-07-30T10:36:31;6.30;;;2.60;;
6947;SDS011;3513;47.664;9.162;2023-07-30T10:39:15;2.43;;;1.80;;
6947;SDS011;3513;47.664;9.162;2023-07-30T10:41:55;2.33;;;2.13;;
6947;SDS011;3513;47.664;9.162;2023-07-30T10:44:22;3.40;;;2.00;;
6947;SDS011;3513;47.664;9.162;2023-07-30T10:46:53;2.40;;;1.87;;
6947;SDS011;3513;47.664;9.162;2023-07-30T10:49:20;2.90;;;2.23;;
6947;SDS011;3513;47.664;9.162;2023-07-30T10:51:46;2.27;;;2.10;;
6947;SDS011;3513;47.664;9.162;2023-07-30T10:54:11;4.30;;;1.90;;
6947;SDS011;3513;47.664;9.162;2023-07-30T10:56:37;7.13;;;2.37;;
6947;SDS011;3513;47.664;9.162;2023-07-30T10:59:05;19.67;;;1.80;;
6947;SDS011;3513;47.664;9.162;2023-07-30T11:01:35;1.63;;;1.53;;
6947;SDS011;3513;47.664;9.162;2023-07-30T11:04:05;3.50;;;2.30;;
6947;SDS011;3513;47.664;9.162;2023-07-30T11:06:35;3.73;;;1.67;;
6947;SDS011;3513;47.664;9.162;2023-07-30T11:09:01;2.13;;;1.93;;
6947;SDS011;3513;47.664;9.162;2023-07-30T11:11:26;2.60;;;1.93;;
6947;SDS011;3513;47.664;9.162;2023-07-30T11:13:52;4.47;;;2.20;;
6947;SDS011;3513;47.664;9.162;2023-07-30T11:16:18;3.03;;;2.30;;
6947;SDS011;3513;47.664;9.162;2023-07-30T11:18:44;3.47;;;1.80;;
6947;SDS011;3513;47.664;9.162;2023-07-30T11:21:12;5.80;;;2.20;;
6947;SDS011;3513;47.664;9.162;2023-07-30T11:23:40;3.77;;;1.93;;
6947;SDS011;3513;47.664;9.162;2023-07-30T11:26:12;5.53;;;1.97;;
6947;SDS011;3513;47.664;9.162;2023-07-30T11:28:42;2.93;;;2.13;;
6947;SDS011;3513;47.664;9.162;2023-07-30T11:31:12;2.40;;;2.20;;
6947;SDS011;3513;47.664;9.162;2023-07-30T11:33:44;5.10;;;2.40;;
6947;SDS011;3513;47.664;9.162;2023-07-30T11:36:15;2.83;;;2.57;;
6947;SDS011;3513;47.664;9.162;2023-07-30T11:38:43;2.40;;;2.03;;
6947;SDS011;3513;47.664;9.162;2023-07-30T11:41:10;6.50;;;2.40;;
6947;SDS011;3513;47.664;9.162;2023-07-30T11:43:40;5.93;;;2.37;;
6947;SDS011;3513;47.664;9.162;2023-07-30T11:48:43;4.73;;;2.00;;
6947;SDS011;3513;47.664;9.162;2023-07-30T11:51:23;2.33;;;1.93;;
6947;SDS011;3513;47.664;9.162;2023-07-30T11:53:51;2.60;;;1.77;;
6947;SDS011;3513;47.664;9.162;2023-07-30T11:56:31;7.10;;;2.83;;
6947;SDS011;3513;47.664;9.162;2023-07-30T11:58:59;2.63;;;2.10;;
6947;SDS011;3513;47.664;9.162;2023-07-30T12:01:32;3.10;;;2.07;;
6947;SDS011;3513;47.664;9.162;2023-07-30T12:03:59;4.70;;;2.37;;
6947;SDS011;3513;47.664;9.162;2023-07-30T12:06:39;3.97;;;2.63;;
6947;SDS011;3513;47.664;9.162;2023-07-30T12:09:10;2.70;;;2.20;;
6947;SDS011;3513;47.664;9.162;2023-07-30T12:11:43;4.93;;;2.10;;
6947;SDS011;3513;47.664;9.162;2023-07-30T12:14:11;2.23;;;1.97;;
6947;SDS011;3513;47.664;9.162;2023-07-30T12:16:36;2.57;;;1.93;;
6947;SDS011;3513;47.664;9.162;2023-07-30T12:19:02;4.00;;;2.30;;
6947;SDS011;3513;47.664;9.162;2023-07-30T12:21:28;3.77;;;2.33;;
6947;SDS011;3513;47.664;9.162;2023-07-30T12:23:53;2.17;;;1.33;;
6947;SDS011;3513;47.664;9.162;2023-07-30T12:26:19;2.00;;;1.80;;
6947;SDS011;3513;47.664;9.162;2023-07-30T12:28:45;4.43;;;2.20;;
6947;SDS011;3513;47.664;9.162;2023-07-30T12:31:10;2.20;;;1.90;;
6947;SDS011;3513;47.664;9.162;2023-07-30T12:33:36;7.70;;;1.97;;
6947;SDS011;3513;47.664;9.162;2023-07-30T12:36:01;4.53;;;2.50;;
6947;SDS011;3513;47.664;9.162;2023-07-30T12:38:27;2.40;;;2.20;;
6947;SDS011;3513;47.664;9.162;2023-07-30T12:40:53;4.23;;;2.30;;
6947;SDS011;3513;47.664;9.162;2023-07-30T12:43:18;3.23;;;2.03;;
6947;SDS011;3513;47.664;9.162;2023-07-30T12:45:45;4.60;;;2.20;;
6947;SDS011;3513;47.664;9.162;2023-07-30T12:48:11;2.40;;;2.20;;
6947;SDS011;3513;47.664;9.162;2023-07-30T12:50:37;2.20;;;1.80;;
6947;SDS011;3513;47.664;9.162;2023-07-30T12:53:02;2.10;;;1.73;;
6947;SDS011;3513;47.664;9.162;2023-07-30T12:55:28;2.30;;;1.63;;
6947;SDS011;3513;47.664;9.162;2023-07-30T12:57:53;3.47;;;2.27;;
6947;SDS011;3513;47.664;9.162;2023-07-30T13:00:19;8.30;;;2.50;;
6947;SDS011;3513;47.664;9.162;2023-07-30T13:02:45;3.20;;;2.27;;
6947;SDS011;3513;47.664;9.162;2023-07-30T13:05:10;5.87;;;2.00;;
6947;SDS011;3513;47.664;9.162;2023-07-30T13:07:36;3.43;;;1.93;;
6947;SDS011;3513;47.664;9.162;2023-07-30T13:10:06;2.43;;;2.23;;
6947;SDS011;3513;47.664;9.162;2023-07-30T13:12:32;2.40;;;2.20;;
6947;SDS011;3513;47.664;9.162;2023-07-30T13:14:59;2.90;;;2.17;;
6947;SDS011;3513;47.664;9.162;2023-07-30T13:17:25;2.10;;;1.90;;
6947;SDS011;3513;47.664;9.162;2023-07-30T13:19:50;5.50;;;2.07;;
6947;SDS011;3513;47.664;9.162;2023-07-30T13:22:16;5.03;;;2.43;;
6947;SDS011;3513;47.664;9.162;2023-07-30T13:24:42;3.30;;;2.13;;
6947;SDS011;3513;47.664;9.162;2023-07-30T13:27:07;3.37;;;2.70;;
6947;SDS011;3513;47.664;9.162;2023-07-30T13:29:33;2.70;;;2.27;;
6947;SDS011;3513;47.664;9.162;2023-07-30T13:31:58;2.23;;;1.73;;
6947;SDS011;3513;47.664;9.162;2023-07-30T13:34:24;5.83;;;3.07;;
6947;SDS011;3513;47.664;9.162;2023-07-30T13:36:50;4.80;;;2.30;;
6947;SDS011;3513;47.664;9.162;2023-07-30T13:39:15;2.07;;;1.70;;
6947;SDS011;3513;47.664;9.162;2023-07-30T13:41:41;2.03;;;1.63;;
6947;SDS011;3513;47.664;9.162;2023-07-30T13:44:06;3.60;;;2.67;;
6947;SDS011;3513;47.664;9.162;2023-07-30T13:46:32;4.00;;;2.07;;
6947;SDS011;3513;47.664;9.162;2023-07-30T13:48:57;1.73;;;1.53;;
6947;SDS011;3513;47.664;9.162;2023-07-30T13:51:23;3.27;;;1.90;;
6947;SDS011;3513;47.664;9.162;2023-07-30T13:53:49;3.50;;;1.87;;
6947;SDS011;3513;47.664;9.162;2023-07-30T13:56:14;5.93;;;2.40;;
6947;SDS011;3513;47.664;9.162;2023-07-30T13:58:40;2.13;;;1.93;;
6947;SDS011;3513;47.664;9.162;2023-07-30T14:01:06;1.77;;;1.67;;
6947;SDS011;3513;47.664;9.162;2023-07-30T14:03:34;2.20;;;1.83;;
6947;SDS011;3513;47.664;9.162;2023-07-30T14:05:59;3.53;;;1.53;;
6947;SDS011;3513;47.664;9.162;2023-07-30T14:08:25;5.70;;;1.80;;
6947;SDS011;3513;47.664;9.162;2023-07-30T14:10:51;3.27;;;1.80;;
6947;SDS011;3513;47.664;9.162;2023-07-30T14:13:17;3.70;;;2.00;;
6947;SDS011;3513;47.664;9.162;2023-07-30T14:15:42;2.13;;;1.80;;
6947;SDS011;3513;47.664;9.162;2023-07-30T14:18:08;3.50;;;1.70;;
6947;SDS011;3513;47.664;9.162;2023-07-30T14:20:34;9.70;;;2.47;;
6947;SDS011;3513;47.664;9.162;2023-07-30T14:23:02;2.27;;;1.70;;
6947;SDS011;3513;47.664;9.162;2023-07-30T14:25:29;1.87;;;1.77;;
6947;SDS011;3513;47.664;9.162;2023-07-30T14:27:54;1.83;;;1.60;;
6947;SDS011;3513;47.664;9.162;2023-07-30T14:30:20;3.93;;;2.20;;
6947;SDS011;3513;47.664;9.162;2023-07-30T14:32:45;4.87;;;1.80;;
6947;SDS011;3513;47.664;9.162;2023-07-30T14:35:11;2.20;;;2.00;;
6947;SDS011;3513;47.664;9.162;2023-07-30T14:37:36;2.90;;;1.63;;
6947;SDS011;3513;47.664;9.162;2023-07-30T14:40:02;2.27;;;1.90;;
6947;SDS011;3513;47.664;9.162;2023-07-30T14:42:28;2.43;;;2.00;;
6947;SDS011;3513;47.664;9.162;2023-07-30T14:44:54;2.23;;;2.03;;
6947;SDS011;3513;47.664;9.162;2023-07-30T14:47:19;5.00;;;2.17;;
6947;SDS011;3513;47.664;9.162;2023-07-30T14:49:47;3.80;;;2.83;;
6947;SDS011;3513;47.664;9.162;2023-07-30T14:52:13;10.77;;;2.33;;
6947;SDS011;3513;47.664;9.162;2023-07-30T14:54:38;1.93;;;1.80;;
6947;SDS011;3513;47.664;9.162;2023-07-30T14:57:04;2.83;;;2.13;;
6947;SDS011;3513;47.664;9.162;2023-07-30T14:59:30;2.37;;;2.20;;
6947;SDS011;3513;47.664;9.162;2023-07-30T15:01:55;3.40;;;2.17;;
6947;SDS011;3513;47.664;9.162;2023-07-30T15:04:21;2.63;;;2.10;;
6947;SDS011;3513;47.664;9.162;2023-07-30T15:06:47;2.47;;;2.27;;
6947;SDS011;3513;47.664;9.162;2023-07-30T15:09:12;8.00;;;2.23;;
6947;SDS011;3513;47.664;9.162;2023-07-30T15:11:38;3.73;;;2.50;;
6947;SDS011;3513;47.664;9.162;2023-07-30T15:14:03;4.97;;;2.40;;